Time;durP1;ratioP1;P1;durP2;ratioP2;P2;SDS_P1;SDS_P2;PMS_P1;PMS_P2;Temp;Humidity;BMP_temperature;BMP_pressure;BME280_temperature;BME280_humidity;BME280_pressure;Samples;Min_cycle;Max_cycle;Signal;HPM_P1;HPM_P2
2022/05/04 00:01:16;;;;;;;0.10;0.10;;;;;;;;;;5032802;28;20109;-82
2022/05/04 00:03:43;;;;;;;0.10;0.10;;;;;;;;;;5033467;28;20104;-82
2022/05/04 00:06:09;;;;;;;0.10;0.10;;;;;;;;;;5032807;28;20018;-82
2022/05/04 00:08:35;;;;;;;0.10;0.10;;;;;;;;;;5033264;28;20477;-83
2022/05/04 00:11:02;;;;;;;0.00;0.00;;;;;;;;;;5015181;28;20386;-82
2022/05/04 00:13:28;;;;;;;0.10;0.10;;;;;;;;;;5032783;28;20029;-82
2022/05/04 00:15:55;;;;;;;0.10;0.10;;;;;;;;;;5032916;28;20049;-82
2022/05/04 00:18:21;;;;;;;0.10;0.10;;;;;;;;;;5032611;28;20087;-82
2022/05/04 00:20:47;;;;;;;0.10;0.10;;;;;;;;;;5032799;28;20017;-82
2022/05/04 00:23:13;;;;;;;0.10;0.10;;;;;;;;;;5032457;28;20037;-82
2022/05/04 00:25:39;;;;;;;0.10;0.10;;;;;;;;;;5032610;28;20507;-82
2022/05/04 00:28:05;;;;;;;0.10;0.10;;;;;;;;;;5032954;28;20034;-82
2022/05/04 00:30:34;;;;;;;0.10;0.10;;;;;;;;;;5032302;28;20025;-81
2022/05/04 00:33:01;;;;;;;0.10;0.10;;;;;;;;;;5032612;28;20100;-82
2022/05/04 00:35:27;;;;;;;0.10;0.10;;;;;;;;;;5032230;28;20703;-82
2022/05/04 00:37:53;;;;;;;0.10;0.10;;;;;;;;;;5032600;28;20033;-82
2022/05/04 00:40:19;;;;;;;0.10;0.10;;;;;;;;;;5014173;28;20033;-82
2022/05/04 00:42:45;;;;;;;0.10;0.10;;;;;;;;;;5032283;28;20038;-82
2022/05/04 00:45:11;;;;;;;0.10;0.10;;;;;;;;;;5031936;28;20023;-82
2022/05/04 00:47:37;;;;;;;0.10;0.10;;;;;;;;;;5032357;28;20444;-82
2022/05/04 00:50:06;;;;;;;0.10;0.10;;;;;;;;;;5032512;28;20031;-82
2022/05/04 00:52:36;;;;;;;0.10;0.10;;;;;;;;;;5032086;28;20045;-82
2022/05/04 00:55:06;;;;;;;0.10;0.10;;;;;;;;;;5032429;28;20072;-82
2022/05/04 01:00:18;;;;;;;;;;;;;;;;;;5032050;28;20551;-81
2022/05/04 01:02:44;;;;;;;0.10;0.10;;;;;;;;;;5031863;28;19913;-81
2022/05/04 01:05:10;;;;;;;0.10;0.10;;;;;;;;;;5014010;28;20053;-81
2022/05/04 01:07:39;;;;;;;0.10;0.10;;;;;;;;;;5032125;28;20072;-81
2022/05/04 01:10:06;;;;;;;0.10;0.10;;;;;;;;;;5032117;28;20028;-81
2022/05/04 01:12:32;;;;;;;0.10;0.10;;;;;;;;;;5031535;28;20033;-81
2022/05/04 01:14:59;;;;;;;0.20;0.20;;;;;;;;;;5031904;28;20021;-81
2022/05/04 01:17:27;;;;;;;0.10;0.10;;;;;;;;;;5013664;28;20481;-81
2022/05/04 01:19:55;;;;;;;0.08;0.08;;;;;;;;;;5031689;28;20075;-81
2022/05/04 01:22:21;;;;;;;0.13;0.13;;;;;;;;;;5031345;28;20087;-81
2022/05/04 01:24:47;;;;;;;0.10;0.10;;;;;;;;;;5031501;28;20063;-81
2022/05/04 01:27:13;;;;;;;0.20;0.20;;;;;;;;;;5031278;28;20030;-80
2022/05/04 01:29:39;;;;;;;0.10;0.10;;;;;;;;;;5031595;28;20486;-81
2022/05/04 01:32:06;;;;;;;0.10;0.10;;;;;;;;;;5031765;28;20035;-81
2022/05/04 01:34:32;;;;;;;0.10;0.10;;;;;;;;;;5031299;28;20098;-81
2022/05/04 01:36:58;;;;;;;0.10;0.10;;;;;;;;;;5031413;28;20033;-80
2022/05/04 01:39:24;;;;;;;0.20;0.20;;;;;;;;;;5031121;28;20040;-80
2022/05/04 01:44:51;;;;;;;0.10;0.10;;;;;;;;;;4951114;29;20039;-81
2022/05/04 01:47:17;;;;;;;0.10;0.10;;;;;;;;;;5014407;28;20500;-81
2022/05/04 01:49:43;;;;;;;0.10;0.10;;;;;;;;;;5031176;28;20444;-82
2022/05/04 01:52:09;;;;;;;0.10;0.10;;;;;;;;;;5030475;28;20087;-81
2022/05/04 01:54:35;;;;;;;0.15;0.15;;;;;;;;;;5031548;28;20067;-81
2022/05/04 01:57:01;;;;;;;0.10;0.10;;;;;;;;;;5031302;28;20025;-81
2022/05/04 01:59:27;;;;;;;0.10;0.10;;;;;;;;;;5030946;28;20029;-81
2022/05/04 02:01:53;;;;;;;0.20;0.20;;;;;;;;;;5031172;28;20112;-82
2022/05/04 02:04:19;;;;;;;0.15;0.15;;;;;;;;;;5030931;28;20457;-81
2022/05/04 02:06:47;;;;;;;0.20;0.20;;;;;;;;;;5031113;28;20092;-81
2022/05/04 02:09:13;;;;;;;0.10;0.10;;;;;;;;;;5030850;28;20017;-81
2022/05/04 02:11:39;;;;;;;0.10;0.10;;;;;;;;;;5031037;28;20489;-81
2022/05/04 02:14:05;;;;;;;0.10;0.10;;;;;;;;;;5013529;28;20053;-81
2022/05/04 02:16:31;;;;;;;0.10;0.10;;;;;;;;;;5030829;28;20029;-81
2022/05/04 02:18:58;;;;;;;0.10;0.10;;;;;;;;;;5030953;28;20030;-82
2022/05/04 02:21:24;;;;;;;0.10;0.10;;;;;;;;;;5030541;28;20497;-82
2022/05/04 02:23:50;;;;;;;0.10;0.10;;;;;;;;;;5030868;28;20075;-83
2022/05/04 02:26:16;;;;;;;0.40;0.40;;;;;;;;;;5030620;28;20021;-83
2022/05/04 02:28:43;;;;;;;0.10;0.10;;;;;;;;;;5030905;28;20113;-81
2022/05/04 02:31:09;;;;;;;0.10;0.10;;;;;;;;;;5030559;28;20108;-82
2022/05/04 02:33:36;;;;;;;0.20;0.20;;;;;;;;;;5031106;28;20056;-82
2022/05/04 02:38:47;;;;;;;0.10;0.10;;;;;;;;;;5030804;28;20048;-81
2022/05/04 02:41:13;;;;;;;0.17;0.17;;;;;;;;;;5030491;28;20037;-81
2022/05/04 02:43:39;;;;;;;0.10;0.10;;;;;;;;;;5030800;28;20037;-81
2022/05/04 02:46:12;;;;;;;0.10;0.10;;;;;;;;;;5030955;28;20028;-81
2022/05/04 02:48:38;;;;;;;0.13;0.13;;;;;;;;;;5030762;28;20108;-81
2022/05/04 02:51:04;;;;;;;0.13;0.13;;;;;;;;;;5031024;28;20026;-81
2022/05/04 02:53:30;;;;;;;0.10;0.10;;;;;;;;;;5030317;28;20030;-82
2022/05/04 02:55:56;;;;;;;0.20;0.20;;;;;;;;;;5013036;28;20029;-82
2022/05/04 02:58:22;;;;;;;0.10;0.10;;;;;;;;;;5030317;28;20033;-82
2022/05/04 03:00:48;;;;;;;0.10;0.10;;;;;;;;;;5030467;28;20584;-82
2022/05/04 03:03:14;;;;;;;0.10;0.10;;;;;;;;;;5032998;28;20033;-82
2022/05/04 03:05:40;;;;;;;0.20;0.20;;;;;;;;;;5034073;28;20017;-82
2022/05/04 03:08:07;;;;;;;0.10;0.10;;;;;;;;;;5034485;28;20390;-81
2022/05/04 03:11:54;;;;;;;0.10;0.10;;;;;;;;;;5034286;28;20029;-81
2022/05/04 03:13:19;;;;;;;0.20;0.20;;;;;;;;;;5033591;28;20029;-81
2022/05/04 03:15:45;;;;;;;0.20;0.20;;;;;;;;;;5033945;28;20470;-81
2022/05/04 03:18:11;;;;;;;0.85;0.85;;;;;;;;;;5033593;28;20032;-81
2022/05/04 03:20:37;;;;;;;0.10;0.10;;;;;;;;;;5034142;28;20080;-81
2022/05/04 03:23:03;;;;;;;0.10;0.10;;;;;;;;;;5034133;28;20367;-82
2022/05/04 03:25:29;;;;;;;0.15;0.15;;;;;;;;;;5033582;28;20025;-81
2022/05/04 03:27:55;;;;;;;0.10;0.10;;;;;;;;;;5033739;28;20018;-81
2022/05/04 03:30:21;;;;;;;0.10;0.10;;;;;;;;;;5015705;28;20029;-81
2022/05/04 03:32:47;;;;;;;0.10;0.10;;;;;;;;;;5033595;28;20075;-82
2022/05/04 03:35:13;;;;;;;0.10;0.10;;;;;;;;;;5033370;28;20037;-81
2022/05/04 03:37:39;;;;;;;0.10;0.10;;;;;;;;;;5033509;28;20421;-81
2022/05/04 03:40:05;;;;;;;0.10;0.10;;;;;;;;;;5033742;28;20037;-81
2022/05/04 03:42:31;;;;;;;0.10;0.10;;;;;;;;;;5033228;28;20033;-81
2022/05/04 03:44:57;;;;;;;0.10;0.10;;;;;;;;;;5033433;28;20029;-81
2022/05/04 03:47:23;;;;;;;0.10;0.10;;;;;;;;;;5033078;28;20026;-81
2022/05/04 03:49:49;;;;;;;0.10;0.10;;;;;;;;;;5033332;28;20080;-81
2022/05/04 03:52:15;;;;;;;0.10;0.10;;;;;;;;;;5033054;28;20413;-81
2022/05/04 03:54:41;;;;;;;0.10;0.10;;;;;;;;;;5033360;28;20084;-81
2022/05/04 03:57:07;;;;;;;0.13;0.13;;;;;;;;;;5033464;28;20109;-81
2022/05/04 03:59:33;;;;;;;0.13;0.13;;;;;;;;;;5033530;28;20072;-81
2022/05/04 04:01:59;;;;;;;0.20;0.20;;;;;;;;;;5033077;28;20032;-81
2022/05/04 04:04:25;;;;;;;0.10;0.10;;;;;;;;;;5032845;28;20033;-81
2022/05/04 04:06:51;;;;;;;0.20;0.20;;;;;;;;;;5032995;28;20071;-81
2022/05/04 04:09:17;;;;;;;0.10;0.10;;;;;;;;;;5032701;28;20393;-81
2022/05/04 04:11:43;;;;;;;0.10;0.10;;;;;;;;;;5033033;28;20056;-81
2022/05/04 04:14:09;;;;;;;0.10;0.10;;;;;;;;;;5032242;28;20057;-81
2022/05/04 04:16:35;;;;;;;0.13;0.13;;;;;;;;;;5033132;28;20489;-81
2022/05/04 04:19:01;;;;;;;0.10;0.10;;;;;;;;;;5032903;28;20508;-81
2022/05/04 04:24:12;;;;;;;0.10;0.10;;;;;;;;;;5032797;28;20588;-81
2022/05/04 04:26:38;;;;;;;0.10;0.10;;;;;;;;;;5032830;28;20057;-81
2022/05/04 04:29:04;;;;;;;0.10;0.10;;;;;;;;;;5032969;28;20028;-81
2022/05/04 04:31:30;;;;;;;0.10;0.10;;;;;;;;;;5032370;28;20025;-81
2022/05/04 04:33:57;;;;;;;0.10;0.10;;;;;;;;;;5032565;28;20501;-81
2022/05/04 04:36:23;;;;;;;0.10;0.10;;;;;;;;;;5032114;28;20053;-81
2022/05/04 04:38:49;;;;;;;0.10;0.10;;;;;;;;;;5032367;28;20064;-81
2022/05/04 04:41:15;;;;;;;0.20;0.20;;;;;;;;;;5032034;28;20024;-81
2022/05/04 04:43:41;;;;;;;0.10;0.10;;;;;;;;;;5032498;28;20060;-81
2022/05/04 04:46:07;;;;;;;0.10;0.10;;;;;;;;;;5032508;28;20099;-81
2022/05/04 04:48:33;;;;;;;0.10;0.10;;;;;;;;;;5032541;28;20033;-81
2022/05/04 04:50:59;;;;;;;0.13;0.13;;;;;;;;;;5032167;28;20124;-81
2022/05/04 04:53:25;;;;;;;0.10;0.10;;;;;;;;;;5031883;28;20147;-80
2022/05/04 04:55:51;;;;;;;0.10;0.10;;;;;;;;;;5014311;28;20046;-81
2022/05/04 04:58:17;;;;;;;0.10;0.10;;;;;;;;;;5031841;28;20033;-81
2022/05/04 05:00:43;;;;;;;0.10;0.10;;;;;;;;;;5032499;28;20033;-81
2022/05/04 05:03:09;;;;;;;0.10;0.10;;;;;;;;;;5031727;28;20409;-81
2022/05/04 05:05:35;;;;;;;0.10;0.10;;;;;;;;;;5015370;28;20406;-81
2022/05/04 05:08:01;;;;;;;0.20;0.20;;;;;;;;;;5051721;28;20024;-81
2022/05/04 05:10:27;;;;;;;0.20;0.20;;;;;;;;;;5051610;28;20365;-81
2022/05/04 05:12:53;;;;;;;0.10;0.10;;;;;;;;;;5051759;28;20021;-81
2022/05/04 05:18:04;;;;;;;0.08;0.08;;;;;;;;;;5051812;28;20121;-80
2022/05/04 05:20:33;;;;;;;0.13;0.13;;;;;;;;;;5049231;28;20040;-81
2022/05/04 05:23:00;;;;;;;0.10;0.10;;;;;;;;;;5017873;28;20048;-81
2022/05/04 05:25:26;;;;;;;0.10;0.10;;;;;;;;;;5035089;28;20492;-81
2022/05/04 05:27:52;;;;;;;0.10;0.10;;;;;;;;;;5031236;28;20041;-81
2022/05/04 05:30:18;;;;;;;0.10;0.10;;;;;;;;;;5032478;28;20116;-81
2022/05/04 05:32:44;;;;;;;0.10;0.10;;;;;;;;;;5051269;28;20041;-82
2022/05/04 05:35:10;;;;;;;0.20;0.20;;;;;;;;;;5051113;28;20021;-81
2022/05/04 05:37:36;;;;;;;0.10;0.10;;;;;;;;;;5045936;28;20028;-83
2022/05/04 05:40:03;;;;;;;0.10;0.10;;;;;;;;;;5037946;28;20029;-82
2022/05/04 05:42:29;;;;;;;0.10;0.10;;;;;;;;;;5051002;28;20041;-83
2022/05/04 05:44:55;;;;;;;0.10;0.10;;;;;;;;;;5051323;28;20049;-83
2022/05/04 05:47:21;;;;;;;0.10;0.10;;;;;;;;;;5050950;28;20025;-83
2022/05/04 05:49:47;;;;;;;0.10;0.10;;;;;;;;;;5051170;28;20025;-81
2022/05/04 05:52:13;;;;;;;0.10;0.10;;;;;;;;;;5050889;28;20028;-82
2022/05/04 05:54:39;;;;;;;0.10;0.10;;;;;;;;;;5049009;28;20033;-84
2022/05/04 05:57:06;;;;;;;0.10;0.10;;;;;;;;;;5031205;28;20056;-81
2022/05/04 05:59:32;;;;;;;0.10;0.10;;;;;;;;;;5031941;28;20021;-82
2022/05/04 06:01:58;;;;;;;0.10;0.10;;;;;;;;;;5031104;28;20508;-82
2022/05/04 06:04:24;;;;;;;0.10;0.10;;;;;;;;;;5030842;28;20021;-82
2022/05/04 06:06:50;;;;;;;0.10;0.10;;;;;;;;;;5031090;28;20025;-81
2022/05/04 06:09:16;;;;;;;0.20;0.20;;;;;;;;;;5031153;28;20030;-81
2022/05/04 06:11:42;;;;;;;0.10;0.10;;;;;;;;;;5049393;28;20136;-86
2022/05/04 06:14:07;;;;;;;0.10;0.10;;;;;;;;;;5038035;28;20512;-79
2022/05/04 06:16:33;;;;;;;0.10;0.10;;;;;;;;;;5047041;28;20079;-83
2022/05/04 06:18:59;;;;;;;0.10;0.10;;;;;;;;;;5049490;28;20401;-83
2022/05/04 06:21:25;;;;;;;0.20;0.20;;;;;;;;;;5049153;28;20029;-82
2022/05/04 06:23:51;;;;;;;0.10;0.10;;;;;;;;;;5049586;28;20029;-83
2022/05/04 06:26:20;;;;;;;0.20;0.20;;;;;;;;;;5050697;28;20056;-82
2022/05/04 06:28:47;;;;;;;0.10;0.10;;;;;;;;;;5050834;28;20397;-86
2022/05/04 06:34:06;;;;;;;0.10;0.10;;;;;;;;;;5051482;28;20039;-83
2022/05/04 06:36:33;;;;;;;0.10;0.10;;;;;;;;;;5052203;28;20106;-87
2022/05/04 06:38:59;;;;;;;0.20;0.20;;;;;;;;;;5054518;28;20037;-80
2022/05/04 06:41:25;;;;;;;0.10;0.10;;;;;;;;;;5036543;28;20017;-80
2022/05/04 06:43:51;;;;;;;0.20;0.20;;;;;;;;;;5054558;28;20029;-80
2022/05/04 06:46:17;;;;;;;0.30;0.30;;;;;;;;;;5047328;28;20030;-81
2022/05/04 06:48:45;;;;;;;0.10;0.10;;;;;;;;;;5025737;28;20043;-80
2022/05/04 06:51:11;;;;;;;0.17;0.17;;;;;;;;;;5038456;28;20029;-81
2022/05/04 06:53:37;;;;;;;0.10;0.10;;;;;;;;;;5048625;28;20036;-82
2022/05/04 06:56:03;;;;;;;0.10;0.10;;;;;;;;;;5054690;28;20021;-81
2022/05/04 06:58:29;;;;;;;0.20;0.20;;;;;;;;;;5053706;28;20025;-81
2022/05/04 07:00:55;;;;;;;0.10;0.10;;;;;;;;;;5054172;28;20017;-82
2022/05/04 07:03:21;;;;;;;0.13;0.13;;;;;;;;;;5054031;28;20128;-81
2022/05/04 07:05:48;;;;;;;0.10;0.10;;;;;;;;;;5036331;28;20175;-81
2022/05/04 07:08:14;;;;;;;0.10;0.10;;;;;;;;;;5053236;28;20471;-80
2022/05/04 07:10:40;;;;;;;0.10;0.10;;;;;;;;;;5024908;28;20512;-79
2022/05/04 07:13:09;;;;;;;0.10;0.10;;;;;;;;;;5024976;28;20088;-77
2022/05/04 07:15:35;;;;;;;0.10;0.10;;;;;;;;;;5023593;28;20401;-78
2022/05/04 07:18:01;;;;;;;0.10;0.10;;;;;;;;;;5025168;28;20021;-79
2022/05/04 07:20:27;;;;;;;0.10;0.10;;;;;;;;;;5024252;28;20504;-77
2022/05/04 07:22:53;;;;;;;0.10;0.10;;;;;;;;;;5023422;28;20046;-78
2022/05/04 07:25:19;;;;;;;0.10;0.10;;;;;;;;;;5025703;28;20430;-78
2022/05/04 07:27:45;;;;;;;0.10;0.10;;;;;;;;;;5022565;28;20029;-79
2022/05/04 07:30:11;;;;;;;0.10;0.10;;;;;;;;;;5033789;28;20021;-79
2022/05/04 07:32:37;;;;;;;0.10;0.10;;;;;;;;;;5033793;28;20033;-77
2022/05/04 07:35:05;;;;;;;0.20;0.20;;;;;;;;;;5033924;28;20022;-80
2022/05/04 07:37:31;;;;;;;0.15;0.15;;;;;;;;;;5015640;28;20033;-79
2022/05/04 07:42:42;;;;;;;0.10;0.10;;;;;;;;;;5040207;28;20048;-80
2022/05/04 07:45:09;;;;;;;0.10;0.10;;;;;;;;;;5041816;28;20017;-80
2022/05/04 07:47:36;;;;;;;0.10;0.10;;;;;;;;;;5028030;28;20516;-79
2022/05/04 07:50:03;;;;;;;0.10;0.10;;;;;;;;;;5031322;28;20115;-79
2022/05/04 07:52:29;;;;;;;0.10;0.10;;;;;;;;;;5053139;28;20029;-80
2022/05/04 07:54:56;;;;;;;0.17;0.17;;;;;;;;;;5045579;28;20024;-80
2022/05/04 07:57:22;;;;;;;0.10;0.10;;;;;;;;;;5042687;28;20489;-77
2022/05/04 08:05:17;;;;;;;0.10;0.10;;;;;;;;;;5052690;28;20040;-77
2022/05/04 08:07:43;;;;;;;0.10;0.10;;;;;;;;;;5035074;28;20021;-77
2022/05/04 08:10:09;;;;;;;0.10;0.10;;;;;;;;;;5034824;28;20444;-77
2022/05/04 08:12:35;;;;;;;0.10;0.10;;;;;;;;;;5053222;28;20028;-77
2022/05/04 08:15:02;;;;;;;0.10;0.10;;;;;;;;;;5052794;28;20366;-77
2022/05/04 08:17:28;;;;;;;0.10;0.10;;;;;;;;;;5052556;28;20112;-77
2022/05/04 08:19:54;;;;;;;0.10;0.10;;;;;;;;;;5052748;28;20388;-80
2022/05/04 08:22:20;;;;;;;0.10;0.10;;;;;;;;;;5052232;28;20076;-80
2022/05/04 08:24:46;;;;;;;0.10;0.10;;;;;;;;;;5052600;28;20397;-80
2022/05/04 08:27:12;;;;;;;0.10;0.10;;;;;;;;;;5052395;28;20085;-79
2022/05/04 08:29:38;;;;;;;0.10;0.10;;;;;;;;;;5052546;28;20032;-80
2022/05/04 19:58:15;;;;;;;0.20;0.20;;;;;;;;;;5086854;27;20468;-80
2022/05/04 20:00:41;;;;;;;0.13;0.13;;;;;;;;;;5087228;28;20480;-83
2022/05/04 20:03:07;;;;;;;0.20;0.20;;;;;;;;;;5087439;28;20538;-79
2022/05/04 20:05:34;;;;;;;0.10;0.10;;;;;;;;;;5087811;28;20074;-81
2022/05/04 20:08:00;;;;;;;0.10;0.10;;;;;;;;;;5087074;28;20036;-82
2022/05/04 20:10:26;;;;;;;0.10;0.10;;;;;;;;;;5086870;28;20023;-80
2022/05/04 20:12:52;;;;;;;0.20;0.20;;;;;;;;;;5085853;28;20020;-80
2022/05/04 20:15:18;;;;;;;0.10;0.10;;;;;;;;;;5086809;28;20043;-78
2022/05/04 20:17:45;;;;;;;0.10;0.10;;;;;;;;;;5085870;28;20036;-79
2022/05/04 20:20:11;;;;;;;0.10;0.10;;;;;;;;;;5086353;28;20016;-80
2022/05/04 20:22:37;;;;;;;0.10;0.10;;;;;;;;;;5087556;28;20036;-78
2022/05/04 20:25:04;;;;;;;0.10;0.10;;;;;;;;;;5088560;28;20020;-80
2022/05/04 20:27:30;;;;;;;0.10;0.10;;;;;;;;;;5088061;28;20025;-82
2022/05/04 20:29:57;;;;;;;0.10;0.10;;;;;;;;;;5088318;28;20032;-80
2022/05/04 20:32:23;;;;;;;0.10;0.10;;;;;;;;;;5088055;28;20024;-84
2022/05/04 20:34:49;;;;;;;0.10;0.10;;;;;;;;;;5087025;28;20027;-84
2022/05/04 20:38:58;;;;;;;0.10;0.10;;;;;;;;;;5086482;28;20453;-88
2022/05/04 20:40:02;;;;;;;0.10;0.10;;;;;;;;;;5088177;28;20060;-85
2022/05/04 20:42:28;;;;;;;0.10;0.10;;;;;;;;;;5087496;28;20050;-86
2022/05/04 20:44:54;;;;;;;0.10;0.10;;;;;;;;;;5088066;28;20476;-83
2022/05/04 20:47:20;;;;;;;0.10;0.10;;;;;;;;;;5087428;28;20027;-82
2022/05/04 20:49:46;;;;;;;0.10;0.10;;;;;;;;;;5086690;28;20028;-89
2022/05/04 20:52:14;;;;;;;0.13;0.13;;;;;;;;;;5087129;28;20032;-88
2022/05/04 20:54:41;;;;;;;0.10;0.10;;;;;;;;;;5083859;28;20562;-86
2022/05/04 20:57:08;;;;;;;0.10;0.10;;;;;;;;;;5086252;28;20066;-79
2022/05/04 20:59:34;;;;;;;0.10;0.10;;;;;;;;;;5087010;28;20103;-91
2022/05/04 21:02:00;;;;;;;0.10;0.10;;;;;;;;;;5087574;28;20491;-91
2022/05/04 21:04:26;;;;;;;0.10;0.10;;;;;;;;;;5087803;28;20392;-89
2022/05/04 21:06:52;;;;;;;0.10;0.10;;;;;;;;;;5087802;28;20050;-90
2022/05/04 21:09:18;;;;;;;0.10;0.10;;;;;;;;;;5075799;28;20487;-89
2022/05/04 21:11:44;;;;;;;0.10;0.10;;;;;;;;;;5071974;28;20454;-90
2022/05/04 21:14:11;;;;;;;0.10;0.10;;;;;;;;;;5072375;28;20032;-89
2022/05/04 21:16:37;;;;;;;0.10;0.10;;;;;;;;;;5073095;28;20514;-78
2022/05/04 21:19:04;;;;;;;0.10;0.10;;;;;;;;;;5074473;28;20098;-91
2022/05/04 21:21:30;;;;;;;0.10;0.10;;;;;;;;;;5074614;28;20020;-91
2022/05/04 21:23:56;;;;;;;0.20;0.20;;;;;;;;;;5074508;28;20472;-90
2022/05/04 21:26:23;;;;;;;0.10;0.10;;;;;;;;;;5073465;28;20107;-89
2022/05/04 21:28:49;;;;;;;0.10;0.10;;;;;;;;;;5073974;28;20028;-86
2022/05/04 21:31:16;;;;;;;0.10;0.10;;;;;;;;;;5074207;28;20119;-84
2022/05/04 21:33:43;;;;;;;0.10;0.10;;;;;;;;;;5073055;28;20020;-82
2022/05/04 21:36:09;;;;;;;0.00;0.00;;;;;;;;;;5071327;28;20052;-84
2022/05/04 21:38:35;;;;;;;0.10;0.10;;;;;;;;;;5070380;28;20036;-84
2022/05/04 21:41:01;;;;;;;0.20;0.20;;;;;;;;;;5072250;28;20020;-84
2022/05/04 21:43:27;;;;;;;0.10;0.10;;;;;;;;;;5085303;28;20519;-84
2022/05/04 21:45:53;;;;;;;0.10;0.10;;;;;;;;;;5072498;28;20532;-82
2022/05/04 21:48:20;;;;;;;0.10;0.10;;;;;;;;;;5080414;28;20066;-85
2022/05/04 21:50:46;;;;;;;0.10;0.10;;;;;;;;;;5081122;28;20025;-85
2022/05/04 21:53:13;;;;;;;0.10;0.10;;;;;;;;;;5087489;28;20035;-83
2022/05/04 21:55:39;;;;;;;0.10;0.10;;;;;;;;;;5074572;28;20024;-83
2022/05/04 21:58:05;;;;;;;0.10;0.10;;;;;;;;;;5082707;28;20168;-83
2022/05/04 22:00:31;;;;;;;0.10;0.10;;;;;;;;;;5080863;28;20028;-82
2022/05/04 22:02:57;;;;;;;0.10;0.10;;;;;;;;;;5070281;28;20035;-84
2022/05/04 22:05:23;;;;;;;0.10;0.10;;;;;;;;;;5071948;28;20114;-80
2022/05/04 22:07:49;;;;;;;0.10;0.10;;;;;;;;;;5072791;28;20031;-84
2022/05/04 22:10:15;;;;;;;0.10;0.10;;;;;;;;;;5072589;28;20021;-87
2022/05/04 22:15:26;;;;;;;0.10;0.10;;;;;;;;;;5072062;28;20490;-88
2022/05/04 22:17:52;;;;;;;0.10;0.10;;;;;;;;;;5072762;28;20067;-86
2022/05/04 22:20:18;;;;;;;0.10;0.10;;;;;;;;;;5071459;28;20103;-87
2022/05/04 22:22:47;;;;;;;0.63;0.60;;;;;;;;;;5071674;28;20074;-88
2022/05/04 22:25:13;;;;;;;0.10;0.10;;;;;;;;;;5071638;28;20052;-89
2022/05/04 22:27:39;;;;;;;0.10;0.10;;;;;;;;;;5072695;28;20555;-89
2022/05/04 22:30:06;;;;;;;0.10;0.10;;;;;;;;;;5072222;28;20056;-87
2022/05/04 22:32:34;;;;;;;0.10;0.10;;;;;;;;;;5073206;28;20051;-90
2022/05/04 22:35:00;;;;;;;0.10;0.10;;;;;;;;;;5073006;28;20025;-89
2022/05/04 22:37:26;;;;;;;0.10;0.10;;;;;;;;;;5072750;28;20106;-87
2022/05/04 22:39:53;;;;;;;0.25;0.25;;;;;;;;;;5072747;28;20024;-90
2022/05/04 22:42:19;;;;;;;0.10;0.10;;;;;;;;;;5072708;28;20029;-90
2022/05/04 22:44:46;;;;;;;0.10;0.10;;;;;;;;;;5073092;28;20442;-90
2022/05/04 22:47:13;;;;;;;0.10;0.10;;;;;;;;;;5072559;28;20028;-87
2022/05/04 22:49:39;;;;;;;0.10;0.10;;;;;;;;;;5073136;28;20024;-89
2022/05/04 22:52:06;;;;;;;0.10;0.10;;;;;;;;;;5072735;28;20435;-89
2022/05/04 22:54:32;;;;;;;0.17;0.17;;;;;;;;;;5072837;28;20086;-90
2022/05/04 22:57:02;;;;;;;0.10;0.10;;;;;;;;;;5072618;28;20040;-89
2022/05/04 22:59:28;;;;;;;0.13;0.13;;;;;;;;;;5072353;28;20021;-89
2022/05/04 23:01:54;;;;;;;0.10;0.10;;;;;;;;;;5072644;28;20021;-89
2022/05/04 23:04:20;;;;;;;0.10;0.10;;;;;;;;;;5072195;28;20543;-89
2022/05/04 23:06:46;;;;;;;0.10;0.10;;;;;;;;;;5072437;28;20035;-90
2022/05/04 23:09:13;;;;;;;0.10;0.10;;;;;;;;;;5072033;28;20020;-90
2022/05/04 23:11:39;;;;;;;0.10;0.10;;;;;;;;;;5072173;28;20024;-89
2022/05/04 23:14:05;;;;;;;0.10;0.10;;;;;;;;;;5072243;28;20070;-89
2022/05/04 23:16:33;;;;;;;0.20;0.20;;;;;;;;;;5070616;28;20077;-88
2022/05/04 23:19:00;;;;;;;0.10;0.10;;;;;;;;;;5072155;28;20028;-88
2022/05/04 23:21:26;;;;;;;0.17;0.17;;;;;;;;;;5071841;28;20025;-88
2022/05/04 23:23:55;;;;;;;0.10;0.10;;;;;;;;;;5072233;28;20107;-89
2022/05/04 23:26:21;;;;;;;0.10;0.10;;;;;;;;;;5071577;28;20031;-89
2022/05/04 23:28:48;;;;;;;0.10;0.10;;;;;;;;;;5071929;28;20024;-90
2022/05/04 23:31:14;;;;;;;0.17;0.17;;;;;;;;;;5071453;28;20024;-89
2022/05/04 23:33:40;;;;;;;0.15;0.15;;;;;;;;;;5071762;28;20029;-88
2022/05/04 23:38:51;;;;;;;0.10;0.10;;;;;;;;;;5071533;28;20051;-88
2022/05/04 23:41:17;;;;;;;0.10;0.10;;;;;;;;;;5071366;28;20107;-87
2022/05/04 23:43:43;;;;;;;0.10;0.10;;;;;;;;;;5070278;28;20035;-87
2022/05/04 23:46:09;;;;;;;0.10;0.10;;;;;;;;;;5071404;28;20571;-89
2022/05/04 23:48:35;;;;;;;0.10;0.10;;;;;;;;;;5071845;28;20029;-87
2022/05/04 23:51:02;;;;;;;0.10;0.10;;;;;;;;;;5071846;28;20023;-88
2022/05/04 23:53:29;;;;;;;0.10;0.10;;;;;;;;;;5071495;28;20033;-88
2022/05/04 23:55:55;;;;;;;0.10;0.10;;;;;;;;;;5071329;28;20435;-87
2022/05/04 23:58:21;;;;;;;0.10;0.10;;;;;;;;;;5071433;28;20033;-87
